Terminal Aerodrome Forecast
Issued by NWS Northern Indiana

Home | Current Version | Previous Version | Text Only | Print | Product List | Glossary Off
Versions: 1 2 3 4 5 6 7 8 9 10 11 12 13

361
FTUS43 KIWX 272339
TAFFWA
TAF
KFWA 272339Z 2800/2824 24005KT P6SM SCT150
     FM280700 19005KT P6SM OVC080
     FM281200 VRB05KT P6SM VCSH OVC060
     FM281800 25005KT P6SM -SHRA BKN035 OVC060
     FM282300 06006KT P6SM -SHRA SCT020 OVC040=

USA.gov is the U.S. government's official web portal to all federal, state and local government web resources and services.